sensor_id;sensor_type;location;lat;lon;timestamp;P1;durP1;ratioP1;P2;durP2;ratioP2
35990;SDS011;22064;42.672;23.282;2023-11-18T00:01:09;0.30;;;0.20;;
35990;SDS011;22064;42.672;23.282;2023-11-18T00:03:35;0.73;;;0.40;;
35990;SDS011;22064;42.672;23.282;2023-11-18T00:06:00;0.50;;;0.50;;
35990;SDS011;22064;42.672;23.282;2023-11-18T00:08:26;0.10;;;0.10;;
35990;SDS011;22064;42.672;23.282;2023-11-18T00:10:52;0.60;;;0.60;;
35990;SDS011;22064;42.672;23.282;2023-11-18T00:13:19;2.45;;;0.57;;
35990;SDS011;22064;42.672;23.282;2023-11-18T00:15:45;0.47;;;0.47;;
35990;SDS011;22064;42.672;23.282;2023-11-18T00:18:12;0.30;;;0.30;;
35990;SDS011;22064;42.672;23.282;2023-11-18T00:20:38;0.30;;;0.30;;
35990;SDS011;22064;42.672;23.282;2023-11-18T00:23:04;1.50;;;0.40;;
35990;SDS011;22064;42.672;23.282;2023-11-18T00:25:30;0.40;;;0.40;;
35990;SDS011;22064;42.672;23.282;2023-11-18T00:27:57;0.25;;;0.25;;
35990;SDS011;22064;42.672;23.282;2023-11-18T00:30:22;0.35;;;0.35;;
35990;SDS011;22064;42.672;23.282;2023-11-18T00:32:48;0.43;;;0.43;;
35990;SDS011;22064;42.672;23.282;2023-11-18T00:35:14;0.30;;;0.30;;
35990;SDS011;22064;42.672;23.282;2023-11-18T00:37:40;0.20;;;0.20;;
35990;SDS011;22064;42.672;23.282;2023-11-18T00:40:07;0.70;;;0.55;;
35990;SDS011;22064;42.672;23.282;2023-11-18T00:42:34;0.80;;;0.50;;
35990;SDS011;22064;42.672;23.282;2023-11-18T00:45:00;0.95;;;0.75;;
35990;SDS011;22064;42.672;23.282;2023-11-18T00:47:26;0.47;;;0.43;;
35990;SDS011;22064;42.672;23.282;2023-11-18T00:49:52;1.00;;;0.70;;
35990;SDS011;22064;42.672;23.282;2023-11-18T00:52:19;1.45;;;1.00;;
35990;SDS011;22064;42.672;23.282;2023-11-18T00:54:45;0.98;;;0.85;;
35990;SDS011;22064;42.672;23.282;2023-11-18T00:57:11;0.88;;;0.43;;
35990;SDS011;22064;42.672;23.282;2023-11-18T00:59:38;1.13;;;0.95;;
35990;SDS011;22064;42.672;23.282;2023-11-18T01:02:07;2.15;;;0.88;;
35990;SDS011;22064;42.672;23.282;2023-11-18T01:04:33;0.20;;;0.20;;
35990;SDS011;22064;42.672;23.282;2023-11-18T01:06:59;1.48;;;1.00;;
35990;SDS011;22064;42.672;23.282;2023-11-18T01:09:25;0.50;;;0.50;;
35990;SDS011;22064;42.672;23.282;2023-11-18T01:11:51;1.02;;;0.93;;
35990;SDS011;22064;42.672;23.282;2023-11-18T01:14:17;1.45;;;0.93;;
35990;SDS011;22064;42.672;23.282;2023-11-18T01:16:44;1.00;;;0.57;;
35990;SDS011;22064;42.672;23.282;2023-11-18T01:19:12;1.02;;;0.70;;
35990;SDS011;22064;42.672;23.282;2023-11-18T01:21:38;1.27;;;1.08;;
35990;SDS011;22064;42.672;23.282;2023-11-18T01:24:04;1.40;;;1.30;;
35990;SDS011;22064;42.672;23.282;2023-11-18T01:26:31;3.50;;;1.83;;
35990;SDS011;22064;42.672;23.282;2023-11-18T01:28:57;1.33;;;1.23;;
35990;SDS011;22064;42.672;23.282;2023-11-18T01:31:23;0.68;;;0.68;;
35990;SDS011;22064;42.672;23.282;2023-11-18T01:33:49;1.27;;;0.93;;
35990;SDS011;22064;42.672;23.282;2023-11-18T01:36:15;1.63;;;1.17;;
35990;SDS011;22064;42.672;23.282;2023-11-18T01:38:43;1.13;;;1.02;;
35990;SDS011;22064;42.672;23.282;2023-11-18T01:41:09;1.70;;;1.60;;
35990;SDS011;22064;42.672;23.282;2023-11-18T01:43:34;1.40;;;0.47;;
35990;SDS011;22064;42.672;23.282;2023-11-18T01:46:05;2.15;;;1.20;;
35990;SDS011;22064;42.672;23.282;2023-11-18T01:48:36;1.17;;;1.08;;
35990;SDS011;22064;42.672;23.282;2023-11-18T01:51:03;1.33;;;1.08;;
35990;SDS011;22064;42.672;23.282;2023-11-18T01:53:31;1.42;;;1.20;;
35990;SDS011;22064;42.672;23.282;2023-11-18T01:56:00;0.98;;;0.85;;
35990;SDS011;22064;42.672;23.282;2023-11-18T01:58:28;1.17;;;0.93;;
35990;SDS011;22064;42.672;23.282;2023-11-18T02:00:56;0.50;;;0.50;;
35990;SDS011;22064;42.672;23.282;2023-11-18T02:03:24;0.73;;;0.73;;
35990;SDS011;22064;42.672;23.282;2023-11-18T02:05:53;0.95;;;0.95;;
35990;SDS011;22064;42.672;23.282;2023-11-18T02:08:19;1.50;;;0.77;;
35990;SDS011;22064;42.672;23.282;2023-11-18T02:10:47;1.65;;;1.55;;
35990;SDS011;22064;42.672;23.282;2023-11-18T02:13:23;0.88;;;0.88;;
35990;SDS011;22064;42.672;23.282;2023-11-18T02:15:53;1.02;;;0.95;;
35990;SDS011;22064;42.672;23.282;2023-11-18T02:18:25;0.80;;;0.50;;
35990;SDS011;22064;42.672;23.282;2023-11-18T02:20:54;1.75;;;1.52;;
35990;SDS011;22064;42.672;23.282;2023-11-18T02:23:24;0.43;;;0.43;;
35990;SDS011;22064;42.672;23.282;2023-11-18T02:25:54;2.35;;;1.63;;
35990;SDS011;22064;42.672;23.282;2023-11-18T02:28:23;1.85;;;1.73;;
35990;SDS011;22064;42.672;23.282;2023-11-18T02:30:50;2.03;;;1.70;;
35990;SDS011;22064;42.672;23.282;2023-11-18T02:36:09;2.25;;;0.90;;
35990;SDS011;22064;42.672;23.282;2023-11-18T02:38:42;2.75;;;1.48;;
35990;SDS011;22064;42.672;23.282;2023-11-18T02:41:12;1.45;;;1.35;;
35990;SDS011;22064;42.672;23.282;2023-11-18T02:43:40;0.90;;;0.77;;
35990;SDS011;22064;42.672;23.282;2023-11-18T02:46:07;0.65;;;0.57;;
35990;SDS011;22064;42.672;23.282;2023-11-18T02:48:33;1.05;;;1.02;;
35990;SDS011;22064;42.672;23.282;2023-11-18T02:51:01;1.70;;;1.60;;
35990;SDS011;22064;42.672;23.282;2023-11-18T02:53:27;3.15;;;2.22;;
35990;SDS011;22064;42.672;23.282;2023-11-18T02:55:54;1.92;;;1.33;;
35990;SDS011;22064;42.672;23.282;2023-11-18T02:58:30;2.42;;;1.63;;
35990;SDS011;22064;42.672;23.282;2023-11-18T03:00:56;2.92;;;2.03;;
35990;SDS011;22064;42.672;23.282;2023-11-18T03:03:26;0.43;;;0.43;;
35990;SDS011;22064;42.672;23.282;2023-11-18T03:05:53;2.38;;;1.50;;
35990;SDS011;22064;42.672;23.282;2023-11-18T03:08:21;3.03;;;1.98;;
35990;SDS011;22064;42.672;23.282;2023-11-18T03:10:47;2.88;;;1.88;;
35990;SDS011;22064;42.672;23.282;2023-11-18T03:13:13;1.63;;;1.48;;
35990;SDS011;22064;42.672;23.282;2023-11-18T03:15:39;2.92;;;1.75;;
35990;SDS011;22064;42.672;23.282;2023-11-18T03:18:05;2.50;;;2.30;;
35990;SDS011;22064;42.672;23.282;2023-11-18T03:20:33;1.90;;;1.45;;
35990;SDS011;22064;42.672;23.282;2023-11-18T03:22:59;4.72;;;2.63;;
35990;SDS011;22064;42.672;23.282;2023-11-18T03:25:28;1.70;;;1.58;;
35990;SDS011;22064;42.672;23.282;2023-11-18T03:27:54;3.33;;;1.52;;
35990;SDS011;22064;42.672;23.282;2023-11-18T03:30:20;3.22;;;1.98;;
35990;SDS011;22064;42.672;23.282;2023-11-18T03:32:46;1.75;;;1.30;;
35990;SDS011;22064;42.672;23.282;2023-11-18T03:35:12;4.78;;;1.55;;
35990;SDS011;22064;42.672;23.282;2023-11-18T03:37:39;3.10;;;2.22;;
35990;SDS011;22064;42.672;23.282;2023-11-18T03:40:09;1.58;;;1.42;;
35990;SDS011;22064;42.672;23.282;2023-11-18T03:42:37;1.35;;;0.93;;
35990;SDS011;22064;42.672;23.282;2023-11-18T03:45:03;1.67;;;1.15;;
35990;SDS011;22064;42.672;23.282;2023-11-18T03:47:30;2.28;;;1.88;;
35990;SDS011;22064;42.672;23.282;2023-11-18T03:49:56;2.90;;;2.22;;
35990;SDS011;22064;42.672;23.282;2023-11-18T03:52:23;3.47;;;2.25;;
35990;SDS011;22064;42.672;23.282;2023-11-18T03:54:49;3.20;;;1.70;;
35990;SDS011;22064;42.672;23.282;2023-11-18T03:57:15;3.80;;;2.70;;
35990;SDS011;22064;42.672;23.282;2023-11-18T03:59:41;4.60;;;2.90;;
35990;SDS011;22064;42.672;23.282;2023-11-18T04:02:07;2.40;;;1.10;;
35990;SDS011;22064;42.672;23.282;2023-11-18T04:04:34;3.53;;;1.88;;
35990;SDS011;22064;42.672;23.282;2023-11-18T04:07:00;0.63;;;0.63;;
35990;SDS011;22064;42.672;23.282;2023-11-18T04:09:26;2.95;;;1.77;;
35990;SDS011;22064;42.672;23.282;2023-11-18T04:11:53;1.38;;;0.98;;
35990;SDS011;22064;42.672;23.282;2023-11-18T04:14:19;2.42;;;1.83;;
35990;SDS011;22064;42.672;23.282;2023-11-18T04:16:46;2.00;;;1.40;;
35990;SDS011;22064;42.672;23.282;2023-11-18T04:19:13;3.08;;;2.63;;
35990;SDS011;22064;42.672;23.282;2023-11-18T04:21:39;3.03;;;2.67;;
35990;SDS011;22064;42.672;23.282;2023-11-18T04:24:05;4.30;;;3.35;;
35990;SDS011;22064;42.672;23.282;2023-11-18T04:26:31;3.30;;;2.17;;
35990;SDS011;22064;42.672;23.282;2023-11-18T04:28:58;4.18;;;3.20;;
35990;SDS011;22064;42.672;23.282;2023-11-18T04:31:26;3.70;;;2.50;;
35990;SDS011;22064;42.672;23.282;2023-11-18T04:33:52;4.75;;;2.90;;
35990;SDS011;22064;42.672;23.282;2023-11-18T04:36:21;3.40;;;2.55;;
35990;SDS011;22064;42.672;23.282;2023-11-18T04:38:47;1.75;;;1.30;;
35990;SDS011;22064;42.672;23.282;2023-11-18T04:41:14;1.17;;;1.05;;
35990;SDS011;22064;42.672;23.282;2023-11-18T04:43:40;4.05;;;2.10;;
35990;SDS011;22064;42.672;23.282;2023-11-18T04:46:07;1.48;;;1.35;;
35990;SDS011;22064;42.672;23.282;2023-11-18T04:48:33;2.65;;;1.88;;
35990;SDS011;22064;42.672;23.282;2023-11-18T04:51:00;2.75;;;1.98;;
35990;SDS011;22064;42.672;23.282;2023-11-18T04:53:26;1.90;;;1.60;;
35990;SDS011;22064;42.672;23.282;2023-11-18T04:55:52;3.33;;;2.97;;
35990;SDS011;22064;42.672;23.282;2023-11-18T04:58:18;2.58;;;2.17;;
35990;SDS011;22064;42.672;23.282;2023-11-18T05:00:44;4.05;;;2.60;;
35990;SDS011;22064;42.672;23.282;2023-11-18T05:03:10;2.97;;;1.67;;
35990;SDS011;22064;42.672;23.282;2023-11-18T05:05:37;1.45;;;1.05;;
35990;SDS011;22064;42.672;23.282;2023-11-18T05:08:06;1.77;;;1.30;;
35990;SDS011;22064;42.672;23.282;2023-11-18T05:10:34;1.48;;;0.90;;
35990;SDS011;22064;42.672;23.282;2023-11-18T05:13:00;2.75;;;2.08;;
35990;SDS011;22064;42.672;23.282;2023-11-18T05:15:27;1.45;;;1.35;;
35990;SDS011;22064;42.672;23.282;2023-11-18T05:17:55;1.67;;;1.20;;
35990;SDS011;22064;42.672;23.282;2023-11-18T05:20:21;1.65;;;1.40;;
35990;SDS011;22064;42.672;23.282;2023-11-18T05:22:47;2.78;;;1.27;;
35990;SDS011;22064;42.672;23.282;2023-11-18T05:25:13;2.55;;;1.77;;
35990;SDS011;22064;42.672;23.282;2023-11-18T05:27:39;1.90;;;1.48;;
35990;SDS011;22064;42.672;23.282;2023-11-18T05:30:06;2.55;;;2.05;;
35990;SDS011;22064;42.672;23.282;2023-11-18T05:32:33;2.00;;;1.48;;
35990;SDS011;22064;42.672;23.282;2023-11-18T05:34:59;1.65;;;1.27;;
35990;SDS011;22064;42.672;23.282;2023-11-18T05:37:26;1.38;;;1.27;;
35990;SDS011;22064;42.672;23.282;2023-11-18T05:39:54;1.40;;;1.05;;
35990;SDS011;22064;42.672;23.282;2023-11-18T05:42:34;1.20;;;1.10;;
35990;SDS011;22064;42.672;23.282;2023-11-18T05:45:07;0.68;;;0.68;;
35990;SDS011;22064;42.672;23.282;2023-11-18T05:47:35;1.17;;;1.00;;
35990;SDS011;22064;42.672;23.282;2023-11-18T05:50:02;1.40;;;1.30;;
35990;SDS011;22064;42.672;23.282;2023-11-18T05:52:30;0.80;;;0.80;;
35990;SDS011;22064;42.672;23.282;2023-11-18T05:54:56;1.63;;;1.52;;
35990;SDS011;22064;42.672;23.282;2023-11-18T05:57:22;1.85;;;1.45;;
35990;SDS011;22064;42.672;23.282;2023-11-18T05:59:48;1.30;;;1.00;;
35990;SDS011;22064;42.672;23.282;2023-11-18T06:02:14;1.45;;;1.13;;
35990;SDS011;22064;42.672;23.282;2023-11-18T06:04:46;0.98;;;0.75;;
35990;SDS011;22064;42.672;23.282;2023-11-18T06:07:12;0.93;;;0.65;;
35990;SDS011;22064;42.672;23.282;2023-11-18T06:09:39;1.92;;;1.58;;
35990;SDS011;22064;42.672;23.282;2023-11-18T06:12:07;22.83;;;1.70;;
35990;SDS011;22064;42.672;23.282;2023-11-18T06:14:36;0.75;;;0.75;;
35990;SDS011;22064;42.672;23.282;2023-11-18T06:17:03;0.55;;;0.52;;
35990;SDS011;22064;42.672;23.282;2023-11-18T06:19:29;1.23;;;0.75;;
35990;SDS011;22064;42.672;23.282;2023-11-18T06:21:55;0.35;;;0.32;;
35990;SDS011;22064;42.672;23.282;2023-11-18T06:24:21;1.10;;;1.00;;
35990;SDS011;22064;42.672;23.282;2023-11-18T06:26:47;1.50;;;0.90;;
35990;SDS011;22064;42.672;23.282;2023-11-18T06:29:15;1.38;;;0.70;;
35990;SDS011;22064;42.672;23.282;2023-11-18T06:31:41;1.25;;;0.88;;
35990;SDS011;22064;42.672;23.282;2023-11-18T06:34:08;1.98;;;1.15;;
35990;SDS011;22064;42.672;23.282;2023-11-18T06:36:34;1.10;;;0.90;;
35990;SDS011;22064;42.672;23.282;2023-11-18T06:39:00;2.45;;;1.30;;
35990;SDS011;22064;42.672;23.282;2023-11-18T06:41:26;1.02;;;0.90;;
35990;SDS011;22064;42.672;23.282;2023-11-18T06:43:59;1.58;;;1.17;;
35990;SDS011;22064;42.672;23.282;2023-11-18T06:46:34;1.50;;;0.90;;
35990;SDS011;22064;42.672;23.282;2023-11-18T06:49:02;2.08;;;0.70;;
35990;SDS011;22064;42.672;23.282;2023-11-18T06:51:30;1.52;;;0.90;;
35990;SDS011;22064;42.672;23.282;2023-11-18T06:54:00;1.15;;;0.68;;
35990;SDS011;22064;42.672;23.282;2023-11-18T06:56:45;0.85;;;0.50;;
35990;SDS011;22064;42.672;23.282;2023-11-18T06:59:11;0.75;;;0.52;;
35990;SDS011;22064;42.672;23.282;2023-11-18T07:01:38;0.90;;;0.60;;
35990;SDS011;22064;42.672;23.282;2023-11-18T07:04:10;1.23;;;0.57;;
35990;SDS011;22064;42.672;23.282;2023-11-18T07:06:36;2.40;;;0.82;;
35990;SDS011;22064;42.672;23.282;2023-11-18T07:09:07;1.77;;;0.80;;
35990;SDS011;22064;42.672;23.282;2023-11-18T07:11:46;0.70;;;0.40;;
35990;SDS011;22064;42.672;23.282;2023-11-18T07:14:13;0.10;;;0.10;;
35990;SDS011;22064;42.672;23.282;2023-11-18T07:16:40;2.15;;;0.63;;
35990;SDS011;22064;42.672;23.282;2023-11-18T07:19:07;1.58;;;0.80;;
35990;SDS011;22064;42.672;23.282;2023-11-18T07:21:35;1.05;;;0.52;;
35990;SDS011;22064;42.672;23.282;2023-11-18T07:24:01;2.28;;;0.63;;
35990;SDS011;22064;42.672;23.282;2023-11-18T07:26:30;0.90;;;0.40;;
35990;SDS011;22064;42.672;23.282;2023-11-18T07:28:56;0.73;;;0.60;;
35990;SDS011;22064;42.672;23.282;2023-11-18T07:31:21;1.08;;;0.82;;
35990;SDS011;22064;42.672;23.282;2023-11-18T07:33:48;0.30;;;0.20;;
35990;SDS011;22064;42.672;23.282;2023-11-18T07:36:17;1.63;;;0.52;;
35990;SDS011;22064;42.672;23.282;2023-11-18T07:38:46;0.73;;;0.70;;
35990;SDS011;22064;42.672;23.282;2023-11-18T07:41:12;0.50;;;0.50;;
35990;SDS011;22064;42.672;23.282;2023-11-18T07:43:52;1.13;;;0.80;;
35990;SDS011;22064;42.672;23.282;2023-11-18T07:46:20;0.52;;;0.50;;
35990;SDS011;22064;42.672;23.282;2023-11-18T07:48:49;1.70;;;0.50;;
35990;SDS011;22064;42.672;23.282;2023-11-18T07:51:20;0.82;;;0.45;;
35990;SDS011;22064;42.672;23.282;2023-11-18T07:53:50;0.57;;;0.50;;
35990;SDS011;22064;42.672;23.282;2023-11-18T07:56:16;1.17;;;0.50;;
35990;SDS011;22064;42.672;23.282;2023-11-18T07:58:42;0.40;;;0.40;;
35990;SDS011;22064;42.672;23.282;2023-11-18T08:01:12;1.05;;;0.50;;
35990;SDS011;22064;42.672;23.282;2023-11-18T08:03:41;1.20;;;1.10;;
35990;SDS011;22064;42.672;23.282;2023-11-18T08:06:08;2.65;;;0.90;;
35990;SDS011;22064;42.672;23.282;2023-11-18T08:08:34;0.77;;;0.75;;
35990;SDS011;22064;42.672;23.282;2023-11-18T08:11:06;0.80;;;0.70;;
35990;SDS011;22064;42.672;23.282;2023-11-18T08:15:58;0.52;;;0.52;;
35990;SDS011;22064;42.672;23.282;2023-11-18T08:18:24;1.05;;;0.82;;
35990;SDS011;22064;42.672;23.282;2023-11-18T08:20:50;2.13;;;0.50;;
35990;SDS011;22064;42.672;23.282;2023-11-18T08:23:16;1.20;;;0.68;;
35990;SDS011;22064;42.672;23.282;2023-11-18T08:25:42;7.45;;;1.00;;
35990;SDS011;22064;42.672;23.282;2023-11-18T08:28:08;0.38;;;0.30;;
35990;SDS011;22064;42.672;23.282;2023-11-18T08:30:37;0.70;;;0.65;;
35990;SDS011;22064;42.672;23.282;2023-11-18T08:33:03;1.20;;;0.70;;
35990;SDS011;22064;42.672;23.282;2023-11-18T08:35:37;0.20;;;0.20;;
35990;SDS011;22064;42.672;23.282;2023-11-18T08:38:03;0.90;;;0.80;;
35990;SDS011;22064;42.672;23.282;2023-11-18T08:40:32;0.95;;;0.80;;
35990;SDS011;22064;42.672;23.282;2023-11-18T08:42:59;2.40;;;1.20;;
35990;SDS011;22064;42.672;23.282;2023-11-18T08:45:27;1.15;;;0.80;;
35990;SDS011;22064;42.672;23.282;2023-11-18T08:47:59;0.30;;;0.30;;
35990;SDS011;22064;42.672;23.282;2023-11-18T08:50:33;1.17;;;0.80;;
35990;SDS011;22064;42.672;23.282;2023-11-18T08:53:00;1.58;;;1.33;;
35990;SDS011;22064;42.672;23.282;2023-11-18T08:55:30;2.17;;;1.25;;
35990;SDS011;22064;42.672;23.282;2023-11-18T08:58:07;1.08;;;0.98;;
35990;SDS011;22064;42.672;23.282;2023-11-18T09:00:56;1.17;;;1.00;;
35990;SDS011;22064;42.672;23.282;2023-11-18T09:03:39;1.20;;;1.00;;
35990;SDS011;22064;42.672;23.282;2023-11-18T09:06:17;1.08;;;1.00;;
35990;SDS011;22064;42.672;23.282;2023-11-18T09:08:44;1.13;;;0.85;;
35990;SDS011;22064;42.672;23.282;2023-11-18T09:11:12;1.38;;;1.10;;
35990;SDS011;22064;42.672;23.282;2023-11-18T09:13:43;0.63;;;0.63;;
35990;SDS011;22064;42.672;23.282;2023-11-18T09:16:25;0.88;;;0.77;;
35990;SDS011;22064;42.672;23.282;2023-11-18T09:18:54;1.13;;;1.05;;
35990;SDS011;22064;42.672;23.282;2023-11-18T09:21:23;0.70;;;0.70;;
35990;SDS011;22064;42.672;23.282;2023-11-18T09:23:50;0.68;;;0.63;;
35990;SDS011;22064;42.672;23.282;2023-11-18T09:26:17;1.80;;;1.20;;
35990;SDS011;22064;42.672;23.282;2023-11-18T09:28:43;1.20;;;0.88;;
35990;SDS011;22064;42.672;23.282;2023-11-18T09:31:10;0.52;;;0.52;;
35990;SDS011;22064;42.672;23.282;2023-11-18T09:33:40;0.98;;;0.88;;
35990;SDS011;22064;42.672;23.282;2023-11-18T09:36:12;1.30;;;1.00;;
35990;SDS011;22064;42.672;23.282;2023-11-18T09:38:38;0.88;;;0.75;;
35990;SDS011;22064;42.672;23.282;2023-11-18T09:41:06;1.17;;;1.08;;
35990;SDS011;22064;42.672;23.282;2023-11-18T09:43:39;1.85;;;1.08;;
35990;SDS011;22064;42.672;23.282;2023-11-18T09:46:16;4.43;;;1.10;;
35990;SDS011;22064;42.672;23.282;2023-11-18T09:48:45;3.28;;;1.13;;
35990;SDS011;22064;42.672;23.282;2023-11-18T09:51:22;1.58;;;0.90;;
35990;SDS011;22064;42.672;23.282;2023-11-18T09:53:50;0.45;;;0.45;;
35990;SDS011;22064;42.672;23.282;2023-11-18T09:57:04;0.70;;;0.70;;
35990;SDS011;22064;42.672;23.282;2023-11-18T10:01:59;1.38;;;0.90;;
35990;SDS011;22064;42.672;23.282;2023-11-18T10:04:29;2.85;;;1.35;;
35990;SDS011;22064;42.672;23.282;2023-11-18T10:06:57;1.85;;;1.33;;
35990;SDS011;22064;42.672;23.282;2023-11-18T10:09:28;2.72;;;0.82;;
35990;SDS011;22064;42.672;23.282;2023-11-18T10:14:32;2.05;;;1.23;;
35990;SDS011;22064;42.672;23.282;2023-11-18T10:17:08;1.52;;;0.80;;
35990;SDS011;22064;42.672;23.282;2023-11-18T10:22:24;2.92;;;1.40;;
35990;SDS011;22064;42.672;23.282;2023-11-18T10:24:52;1.17;;;0.95;;
35990;SDS011;22064;42.672;23.282;2023-11-18T10:27:24;1.83;;;1.27;;
35990;SDS011;22064;42.672;23.282;2023-11-18T10:29:55;1.15;;;1.05;;
35990;SDS011;22064;42.672;23.282;2023-11-18T10:32:22;1.75;;;0.93;;
35990;SDS011;22064;42.672;23.282;2023-11-18T10:34:55;1.80;;;0.98;;
35990;SDS011;22064;42.672;23.282;2023-11-18T10:37:23;1.45;;;1.00;;
35990;SDS011;22064;42.672;23.282;2023-11-18T10:39:53;1.75;;;1.33;;
35990;SDS011;22064;42.672;23.282;2023-11-18T10:42:19;0.30;;;0.30;;
35990;SDS011;22064;42.672;23.282;2023-11-18T10:44:55;1.90;;;0.95;;
35990;SDS011;22064;42.672;23.282;2023-11-18T10:47:25;0.85;;;0.80;;
35990;SDS011;22064;42.672;23.282;2023-11-18T10:49:52;0.70;;;0.70;;
35990;SDS011;22064;42.672;23.282;2023-11-18T10:52:22;2.15;;;1.33;;
35990;SDS011;22064;42.672;23.282;2023-11-18T10:54:52;3.47;;;1.20;;
35990;SDS011;22064;42.672;23.282;2023-11-18T10:57:23;1.30;;;1.17;;
35990;SDS011;22064;42.672;23.282;2023-11-18T10:59:59;0.73;;;0.55;;
35990;SDS011;22064;42.672;23.282;2023-11-18T11:02:28;0.60;;;0.43;;
35990;SDS011;22064;42.672;23.282;2023-11-18T11:05:00;1.20;;;0.90;;
35990;SDS011;22064;42.672;23.282;2023-11-18T11:07:27;0.82;;;0.82;;
35990;SDS011;22064;42.672;23.282;2023-11-18T11:09:55;1.75;;;0.75;;
35990;SDS011;22064;42.672;23.282;2023-11-18T11:12:22;2.17;;;1.13;;
35990;SDS011;22064;42.672;23.282;2023-11-18T11:14:57;1.60;;;0.77;;
35990;SDS011;22064;42.672;23.282;2023-11-18T11:17:29;2.05;;;1.38;;
35990;SDS011;22064;42.672;23.282;2023-11-18T11:20:06;1.30;;;1.00;;
35990;SDS011;22064;42.672;23.282;2023-11-18T11:23:05;1.38;;;1.27;;
35990;SDS011;22064;42.672;23.282;2023-11-18T11:28:40;1.50;;;0.82;;
35990;SDS011;22064;42.672;23.282;2023-11-18T11:31:12;1.88;;;1.30;;
35990;SDS011;22064;42.672;23.282;2023-11-18T11:33:57;1.25;;;1.08;;
35990;SDS011;22064;42.672;23.282;2023-11-18T11:36:39;4.95;;;0.93;;
35990;SDS011;22064;42.672;23.282;2023-11-18T11:39:08;2.28;;;0.77;;
35990;SDS011;22064;42.672;23.282;2023-11-18T11:41:42;0.45;;;0.35;;
35990;SDS011;22064;42.672;23.282;2023-11-18T11:44:13;1.02;;;0.93;;
35990;SDS011;22064;42.672;23.282;2023-11-18T11:46:40;0.73;;;0.70;;
35990;SDS011;22064;42.672;23.282;2023-11-18T11:49:08;1.90;;;1.27;;
35990;SDS011;22064;42.672;23.282;2023-11-18T11:51:47;0.68;;;0.68;;
35990;SDS011;22064;42.672;23.282;2023-11-18T11:54:25;2.65;;;0.70;;
35990;SDS011;22064;42.672;23.282;2023-11-18T11:56:56;1.42;;;1.20;;
35990;SDS011;22064;42.672;23.282;2023-11-18T12:02:20;1.77;;;0.73;;
35990;SDS011;22064;42.672;23.282;2023-11-18T12:04:51;2.42;;;1.00;;
35990;SDS011;22064;42.672;23.282;2023-11-18T12:07:21;1.63;;;1.20;;
35990;SDS011;22064;42.672;23.282;2023-11-18T12:09:56;2.05;;;0.65;;
35990;SDS011;22064;42.672;23.282;2023-11-18T12:12:24;0.75;;;0.70;;
35990;SDS011;22064;42.672;23.282;2023-11-18T12:14:58;3.83;;;1.10;;
35990;SDS011;22064;42.672;23.282;2023-11-18T12:23:16;1.08;;;0.82;;
35990;SDS011;22064;42.672;23.282;2023-11-18T12:25:44;3.28;;;1.48;;
35990;SDS011;22064;42.672;23.282;2023-11-18T12:28:21;2.58;;;1.50;;
35990;SDS011;22064;42.672;23.282;2023-11-18T12:30:53;1.25;;;0.98;;
35990;SDS011;22064;42.672;23.282;2023-11-18T12:34:05;2.25;;;0.85;;
35990;SDS011;22064;42.672;23.282;2023-11-18T12:41:48;2.90;;;1.38;;
35990;SDS011;22064;42.672;23.282;2023-11-18T12:44:41;4.90;;;1.13;;
35990;SDS011;22064;42.672;23.282;2023-11-18T12:47:40;0.70;;;0.70;;
35990;SDS011;22064;42.672;23.282;2023-11-18T12:50:10;1.13;;;1.02;;
35990;SDS011;22064;42.672;23.282;2023-11-18T12:52:43;1.10;;;0.95;;
35990;SDS011;22064;42.672;23.282;2023-11-18T12:55:13;2.58;;;1.77;;
35990;SDS011;22064;42.672;23.282;2023-11-18T12:57:47;3.25;;;1.55;;
35990;SDS011;22064;42.672;23.282;2023-11-18T13:00:17;2.03;;;1.48;;
35990;SDS011;22064;42.672;23.282;2023-11-18T13:02:53;2.15;;;1.67;;
35990;SDS011;22064;42.672;23.282;2023-11-18T13:05:20;1.77;;;1.67;;
35990;SDS011;22064;42.672;23.282;2023-11-18T13:07:46;2.35;;;1.55;;
35990;SDS011;22064;42.672;23.282;2023-11-18T13:10:14;1.90;;;1.45;;
35990;SDS011;22064;42.672;23.282;2023-11-18T13:12:41;2.63;;;1.55;;
35990;SDS011;22064;42.672;23.282;2023-11-18T13:15:09;2.70;;;1.75;;
35990;SDS011;22064;42.672;23.282;2023-11-18T13:17:35;2.55;;;1.73;;
35990;SDS011;22064;42.672;23.282;2023-11-18T13:20:11;3.83;;;2.00;;
35990;SDS011;22064;42.672;23.282;2023-11-18T13:22:43;2.67;;;2.08;;
35990;SDS011;22064;42.672;23.282;2023-11-18T13:25:09;1.00;;;0.93;;
35990;SDS011;22064;42.672;23.282;2023-11-18T13:27:34;1.35;;;1.05;;
35990;SDS011;22064;42.672;23.282;2023-11-18T13:30:01;2.10;;;1.77;;
35990;SDS011;22064;42.672;23.282;2023-11-18T13:32:29;2.88;;;2.08;;
35990;SDS011;22064;42.672;23.282;2023-11-18T13:34:55;4.07;;;1.50;;
35990;SDS011;22064;42.672;23.282;2023-11-18T13:37:21;1.52;;;1.33;;
35990;SDS011;22064;42.672;23.282;2023-11-18T13:39:56;2.67;;;1.80;;
35990;SDS011;22064;42.672;23.282;2023-11-18T13:42:26;3.22;;;2.08;;
35990;SDS011;22064;42.672;23.282;2023-11-18T13:45:00;3.63;;;2.20;;
35990;SDS011;22064;42.672;23.282;2023-11-18T13:47:35;2.42;;;2.00;;
35990;SDS011;22064;42.672;23.282;2023-11-18T13:50:05;2.13;;;1.92;;
35990;SDS011;22064;42.672;23.282;2023-11-18T13:52:36;1.40;;;1.30;;
35990;SDS011;22064;42.672;23.282;2023-11-18T13:55:05;2.83;;;2.10;;
35990;SDS011;22064;42.672;23.282;2023-11-18T13:57:34;1.98;;;1.65;;
35990;SDS011;22064;42.672;23.282;2023-11-18T14:00:00;2.00;;;1.63;;
35990;SDS011;22064;42.672;23.282;2023-11-18T14:02:27;2.47;;;1.48;;
35990;SDS011;22064;42.672;23.282;2023-11-18T14:04:54;3.20;;;1.38;;
35990;SDS011;22064;42.672;23.282;2023-11-18T14:07:22;2.03;;;1.77;;
35990;SDS011;22064;42.672;23.282;2023-11-18T14:09:49;4.63;;;2.17;;
35990;SDS011;22064;42.672;23.282;2023-11-18T14:12:17;2.95;;;1.92;;
35990;SDS011;22064;42.672;23.282;2023-11-18T14:14:43;4.72;;;1.70;;
35990;SDS011;22064;42.672;23.282;2023-11-18T14:17:09;7.90;;;2.15;;
35990;SDS011;22064;42.672;23.282;2023-11-18T14:19:38;2.13;;;1.83;;
35990;SDS011;22064;42.672;23.282;2023-11-18T14:22:04;3.20;;;2.00;;
35990;SDS011;22064;42.672;23.282;2023-11-18T14:24:33;4.95;;;2.35;;
35990;SDS011;22064;42.672;23.282;2023-11-18T14:26:59;5.47;;;2.22;;
35990;SDS011;22064;42.672;23.282;2023-11-18T14:29:26;2.72;;;1.67;;
35990;SDS011;22064;42.672;23.282;2023-11-18T14:31:53;4.15;;;2.55;;
35990;SDS011;22064;42.672;23.282;2023-11-18T14:34:22;4.13;;;2.13;;
35990;SDS011;22064;42.672;23.282;2023-11-18T14:36:49;2.95;;;1.92;;
35990;SDS011;22064;42.672;23.282;2023-11-18T14:39:15;2.90;;;2.05;;
35990;SDS011;22064;42.672;23.282;2023-11-18T14:41:47;3.50;;;2.00;;
35990;SDS011;22064;42.672;23.282;2023-11-18T14:44:14;4.35;;;2.20;;
35990;SDS011;22064;42.672;23.282;2023-11-18T14:46:40;3.70;;;2.00;;
35990;SDS011;22064;42.672;23.282;2023-11-18T14:49:08;3.75;;;2.78;;
35990;SDS011;22064;42.672;23.282;2023-11-18T14:51:35;5.90;;;2.03;;
35990;SDS011;22064;42.672;23.282;2023-11-18T14:54:01;3.70;;;2.00;;
35990;SDS011;22064;42.672;23.282;2023-11-18T14:56:27;3.20;;;1.83;;
35990;SDS011;22064;42.672;23.282;2023-11-18T14:58:53;4.15;;;2.47;;
35990;SDS011;22064;42.672;23.282;2023-11-18T15:01:19;4.20;;;2.83;;
35990;SDS011;22064;42.672;23.282;2023-11-18T15:03:45;3.60;;;2.20;;
35990;SDS011;22064;42.672;23.282;2023-11-18T15:06:14;5.07;;;2.75;;
35990;SDS011;22064;42.672;23.282;2023-11-18T15:08:41;3.92;;;2.70;;
35990;SDS011;22064;42.672;23.282;2023-11-18T15:11:07;3.45;;;2.17;;
35990;SDS011;22064;42.672;23.282;2023-11-18T15:13:33;2.90;;;2.30;;